Time;durP1;ratioP1;P1;durP2;ratioP2;P2;SDS_P1;SDS_P2;PMS_P1;PMS_P2;Temp;Humidity;BMP_temperature;BMP_pressure;BME280_temperature;BME280_humidity;BME280_pressure;Samples;Min_cycle;Max_cycle;Signal;HPM_P1;HPM_P2
2023/10/15 00:01:33;;;;;;;3.17;0.77;;;;;;;;;;5062031;28;20064;-50
2023/10/15 00:03:59;;;;;;;3.53;0.70;;;;;;;;;;5065091;28;20036;-48
2023/10/15 00:06:25;;;;;;;3.63;0.80;;;;;;;;;;5062178;28;20075;-48
2023/10/15 00:08:51;;;;;;;3.10;0.63;;;;;;;;;;5066432;28;20112;-48
2023/10/15 00:11:18;;;;;;;2.63;0.50;;;;;;;;;;5065322;28;20071;-51
2023/10/15 00:13:44;;;;;;;2.08;0.75;;;;;;;;;;5068993;28;20047;-51
2023/10/15 00:16:16;;;;;;;3.47;0.70;;;;;;;;;;5062414;28;20049;-49
2023/10/15 00:18:42;;;;;;;3.63;0.60;;;;;;;;;;5066014;28;20044;-49
2023/10/15 00:21:12;;;;;;;0.93;0.50;;;;;;;;;;5063648;28;20060;-49
2023/10/15 00:23:38;;;;;;;3.45;0.75;;;;;;;;;;5062567;28;20079;-48
2023/10/15 00:26:04;;;;;;;2.08;0.80;;;;;;;;;;5063697;28;20380;-48
2023/10/15 00:28:30;;;;;;;2.50;0.80;;;;;;;;;;5061834;28;20051;-48
2023/10/15 00:30:56;;;;;;;1.88;0.70;;;;;;;;;;5061656;28;20037;-49
2023/10/15 00:33:22;;;;;;;6.68;1.02;;;;;;;;;;5065549;28;20045;-48
2023/10/15 00:35:53;;;;;;;3.08;0.90;;;;;;;;;;5061379;28;20040;-49
2023/10/15 00:38:19;;;;;;;3.50;1.10;;;;;;;;;;5059858;28;20052;-49
2023/10/15 00:40:51;;;;;;;2.45;0.52;;;;;;;;;;5065060;28;20157;-52
2023/10/15 00:43:18;;;;;;;3.60;0.90;;;;;;;;;;5064658;28;20115;-52
2023/10/15 00:45:45;;;;;;;2.60;0.85;;;;;;;;;;5066633;28;20504;-48
2023/10/15 00:48:22;;;;;;;2.55;0.77;;;;;;;;;;5058274;28;20052;-49
2023/10/15 00:50:49;;;;;;;2.70;0.85;;;;;;;;;;5065934;28;20499;-48
2023/10/15 00:53:24;;;;;;;4.78;0.93;;;;;;;;;;5067089;28;20041;-51
2023/10/15 00:56:04;;;;;;;4.00;0.60;;;;;;;;;;5061201;28;20168;-48
2023/10/15 00:58:31;;;;;;;1.45;0.70;;;;;;;;;;5066208;28;20488;-48
2023/10/15 01:01:00;;;;;;;2.30;0.75;;;;;;;;;;5067783;28;20059;-49
2023/10/15 01:03:33;;;;;;;4.22;0.90;;;;;;;;;;5065069;28;20094;-49
2023/10/15 01:06:04;;;;;;;4.43;0.85;;;;;;;;;;5059762;28;20121;-48
2023/10/15 01:08:35;;;;;;;1.73;0.75;;;;;;;;;;5067598;28;20048;-51
2023/10/15 01:11:10;;;;;;;5.32;1.00;;;;;;;;;;5060476;28;20044;-50
2023/10/15 01:13:39;;;;;;;4.72;0.90;;;;;;;;;;5070913;28;20044;-48
2023/10/15 01:16:08;;;;;;;3.60;0.80;;;;;;;;;;5074979;28;20077;-50
2023/10/15 01:18:34;;;;;;;3.78;0.95;;;;;;;;;;5064243;28;20584;-51
2023/10/15 01:21:01;;;;;;;3.78;0.60;;;;;;;;;;5067277;28;20044;-48
2023/10/15 01:23:32;;;;;;;2.53;0.90;;;;;;;;;;5069389;28;20049;-50
2023/10/15 01:26:00;;;;;;;1.80;0.80;;;;;;;;;;5069970;28;20041;-49
2023/10/15 01:28:38;;;;;;;4.57;0.82;;;;;;;;;;5062630;28;20441;-49
2023/10/15 01:31:06;;;;;;;4.15;0.93;;;;;;;;;;5069340;28;20043;-48
2023/10/15 01:33:47;;;;;;;4.78;1.00;;;;;;;;;;5061992;28;20095;-48
2023/10/15 01:36:19;;;;;;;2.28;0.68;;;;;;;;;;5065109;28;20036;-48
2023/10/15 01:38:45;;;;;;;4.18;0.90;;;;;;;;;;5063800;28;20139;-51
2023/10/15 01:41:19;;;;;;;3.85;0.68;;;;;;;;;;5066428;28;20062;-48
2023/10/15 01:43:46;;;;;;;3.03;0.60;;;;;;;;;;5062915;28;20459;-48
2023/10/15 01:46:20;;;;;;;3.70;1.02;;;;;;;;;;5070937;28;20561;-52
2023/10/15 01:48:46;;;;;;;2.60;0.60;;;;;;;;;;5057911;28;20170;-50
2023/10/15 01:51:16;;;;;;;2.15;0.90;;;;;;;;;;5060191;28;20041;-47
2023/10/15 01:53:45;;;;;;;2.50;0.88;;;;;;;;;;5064063;28;20133;-48
2023/10/15 01:56:17;;;;;;;1.48;0.60;;;;;;;;;;5063626;28;20051;-49
2023/10/15 01:58:44;;;;;;;2.13;0.70;;;;;;;;;;5064584;28;20044;-48
2023/10/15 02:01:20;;;;;;;4.10;0.90;;;;;;;;;;5055356;28;20056;-48
2023/10/15 02:03:47;;;;;;;2.13;0.70;;;;;;;;;;5064765;28;20295;-48
2023/10/15 02:06:16;;;;;;;2.88;0.80;;;;;;;;;;5069732;28;20491;-48
2023/10/15 02:08:45;;;;;;;2.72;0.57;;;;;;;;;;5063672;28;20041;-48
2023/10/15 02:11:15;;;;;;;2.70;0.77;;;;;;;;;;5055299;28;20084;-47
2023/10/15 02:13:44;;;;;;;1.33;0.63;;;;;;;;;;5066288;28;20040;-48
2023/10/15 02:16:16;;;;;;;4.18;0.88;;;;;;;;;;5065357;28;20056;-47
2023/10/15 02:18:45;;;;;;;2.80;0.70;;;;;;;;;;5052097;28;20123;-50
2023/10/15 02:21:16;;;;;;;2.50;0.85;;;;;;;;;;5064917;28;20467;-48
2023/10/15 02:23:49;;;;;;;2.25;0.50;;;;;;;;;;5064154;28;20075;-48
2023/10/15 02:26:18;;;;;;;4.20;0.98;;;;;;;;;;5064800;28;20448;-49
2023/10/15 02:28:44;;;;;;;1.48;0.80;;;;;;;;;;5066194;28;20041;-47
2023/10/15 02:31:14;;;;;;;4.45;0.90;;;;;;;;;;5068898;28;20072;-48
2023/10/15 02:33:40;;;;;;;4.03;0.70;;;;;;;;;;5044504;28;20147;-50
2023/10/15 02:36:09;;;;;;;4.35;1.10;;;;;;;;;;5068111;28;20158;-47
2023/10/15 02:38:52;;;;;;;2.92;0.70;;;;;;;;;;5066344;28;20410;-47
2023/10/15 02:41:18;;;;;;;3.20;0.80;;;;;;;;;;5067867;28;20059;-49
2023/10/15 02:43:56;;;;;;;2.17;0.77;;;;;;;;;;5063865;28;20430;-47
2023/10/15 02:46:24;;;;;;;3.08;0.70;;;;;;;;;;5060921;28;20139;-47
2023/10/15 02:48:53;;;;;;;1.45;0.50;;;;;;;;;;5061451;28;20064;-48
2023/10/15 02:51:26;;;;;;;4.05;0.90;;;;;;;;;;5066467;28;20125;-49
2023/10/15 02:53:54;;;;;;;2.65;1.05;;;;;;;;;;5063506;28;20052;-48
2023/10/15 02:56:20;;;;;;;5.95;0.88;;;;;;;;;;5067191;28;20094;-47
2023/10/15 02:58:47;;;;;;;3.78;1.02;;;;;;;;;;5065084;28;20062;-50
2023/10/15 03:01:17;;;;;;;2.42;0.50;;;;;;;;;;5056070;28;20041;-49
2023/10/15 03:03:53;;;;;;;1.65;0.70;;;;;;;;;;5065223;28;20087;-47
2023/10/15 03:06:24;;;;;;;3.10;0.70;;;;;;;;;;5061245;28;20832;-51
2023/10/15 03:08:51;;;;;;;1.50;0.80;;;;;;;;;;5064042;28;20047;-47
2023/10/15 03:11:19;;;;;;;2.53;1.00;;;;;;;;;;5065595;28;20411;-50
2023/10/15 03:13:55;;;;;;;2.58;0.80;;;;;;;;;;5058411;28;20048;-47
2023/10/15 03:16:30;;;;;;;2.75;0.98;;;;;;;;;;5067093;28;20451;-47
2023/10/15 03:19:06;;;;;;;3.42;0.77;;;;;;;;;;5057795;28;20090;-47
2023/10/15 03:21:37;;;;;;;3.65;0.77;;;;;;;;;;5052778;28;20499;-47
2023/10/15 03:24:04;;;;;;;2.17;0.85;;;;;;;;;;5065794;28;20040;-48
2023/10/15 03:26:33;;;;;;;2.63;0.70;;;;;;;;;;5063954;28;20423;-47
2023/10/15 03:28:58;;;;;;;;;;;;;;;;;;5061752;28;20506;-48
2023/10/15 03:31:27;;;;;;;1.40;0.60;;;6.50;99.90;;;;;;5067006;28;19942;-47
2023/10/15 03:41:54;;;;;;;2.78;0.68;;;6.20;99.90;;;;;;5060829;28;20511;-46
2023/10/15 03:44:32;;;;;;;4.32;0.90;;;6.20;99.90;;;;;;5058588;28;20061;-48
2023/10/15 03:47:04;;;;;;;1.95;0.77;;;6.10;99.90;;;;;;5066352;28;20060;-47
2023/10/15 03:49:31;;;;;;;4.18;0.95;;;6.10;99.90;;;;;;5063502;28;20036;-46
2023/10/15 03:51:57;;;;;;;4.43;0.70;;;6.10;99.90;;;;;;5058667;28;20049;-46
2023/10/15 03:54:23;;;;;;;3.88;0.88;;;6.10;99.90;;;;;;5064641;28;20036;-46
2023/10/15 03:56:52;;;;;;;3.10;0.90;;;6.10;99.90;;;;;;5065474;28;20398;-47
2023/10/15 03:59:20;;;;;;;4.60;0.90;;;6.10;99.90;;;;;;5058528;28;20518;-46
2023/10/15 04:01:48;;;;;;;3.55;0.80;;;6.20;99.90;;;;;;5068112;28;20036;-46
2023/10/15 04:04:20;;;;;;;4.13;0.95;;;6.10;99.90;;;;;;5064969;28;20055;-47
2023/10/15 04:06:51;;;;;;;3.35;1.10;;;6.20;99.90;;;;;;5063252;28;20033;-47
2023/10/15 04:09:17;;;;;;;2.10;0.80;;;6.30;99.90;;;;;;5069463;28;20162;-47
2023/10/15 04:11:43;;;;;;;4.10;0.75;;;6.30;99.90;;;;;;5064084;28;20052;-50
2023/10/15 04:14:28;;;;;;;2.13;0.77;;;6.30;99.90;;;;;;5057732;28;20155;-47
2023/10/15 04:16:57;;;;;;;3.55;0.80;;;6.30;99.90;;;;;;5064287;28;20052;-47
2023/10/15 04:19:25;;;;;;;2.75;0.90;;;6.30;99.90;;;;;;5065664;28;20462;-47
2023/10/15 04:21:59;;;;;;;2.38;0.95;;;6.20;99.90;;;;;;5063487;28;20048;-47
2023/10/15 04:24:39;;;;;;;3.15;0.70;;;6.20;99.90;;;;;;5066893;28;20076;-47
2023/10/15 04:27:06;;;;;;;1.83;0.73;;;6.20;99.90;;;;;;5069244;28;20036;-47
2023/10/15 04:29:34;;;;;;;3.05;0.80;;;6.10;99.90;;;;;;5065993;28;20040;-48
2023/10/15 04:32:09;;;;;;;1.48;0.70;;;6.10;99.90;;;;;;5056311;28;20124;-47
2023/10/15 04:34:39;;;;;;;2.58;1.08;;;6.00;99.90;;;;;;5066772;28;20041;-50
2023/10/15 04:37:10;;;;;;;2.10;0.90;;;6.10;99.90;;;;;;5062580;28;20047;-47
2023/10/15 04:39:47;;;;;;;2.22;0.70;;;6.00;99.90;;;;;;5069927;28;20394;-47
2023/10/15 04:42:20;;;;;;;3.80;0.80;;;6.00;99.90;;;;;;5061219;28;20121;-48
2023/10/15 04:44:46;;;;;;;4.30;0.80;;;6.00;99.90;;;;;;5060663;28;20144;-47
2023/10/15 04:47:12;;;;;;;6.40;1.15;;;6.00;99.90;;;;;;5062686;28;20124;-46
2023/10/15 04:49:38;;;;;;;3.35;1.45;;;5.90;99.90;;;;;;5056641;28;20468;-45
2023/10/15 04:52:13;;;;;;;4.05;0.90;;;5.90;99.90;;;;;;5062102;28;20124;-47
2023/10/15 04:54:40;;;;;;;3.97;1.20;;;5.90;99.90;;;;;;5064552;28;20119;-46
2023/10/15 04:57:05;;;;;;;2.60;0.90;;;6.00;99.90;;;;;;5065870;28;20048;-47
2023/10/15 04:59:31;;;;;;;4.32;1.00;;;5.90;99.90;;;;;;5064157;28;20040;-47
2023/10/15 05:01:56;;;;;;;3.70;0.90;;;5.80;99.90;;;;;;5065586;28;20174;-47
2023/10/15 05:04:23;;;;;;;3.60;0.90;;;5.90;99.90;;;;;;5069654;28;20071;-49
2023/10/15 05:06:49;;;;;;;3.20;0.93;;;5.90;99.90;;;;;;5062489;28;20041;-46
2023/10/15 05:09:21;;;;;;;3.08;1.10;;;5.90;99.90;;;;;;5065266;28;20608;-48
2023/10/15 05:11:50;;;;;;;3.75;1.10;;;5.90;99.90;;;;;;5068580;28;20051;-46
2023/10/15 05:14:17;;;;;;;4.13;1.02;;;6.00;99.90;;;;;;5069850;28;20053;-46
2023/10/15 05:16:46;;;;;;;4.57;1.15;;;6.00;99.90;;;;;;5069331;28;20067;-48
2023/10/15 05:19:16;;;;;;;4.03;0.95;;;6.20;99.90;;;;;;5066480;28;20107;-47
2023/10/15 05:21:43;;;;;;;4.53;1.13;;;6.20;99.90;;;;;;5067210;28;20037;-47
2023/10/15 05:24:08;;;;;;;2.55;1.02;;;6.20;99.90;;;;;;5066235;28;20051;-47
2023/10/15 05:26:34;;;;;;;2.08;0.85;;;6.30;99.90;;;;;;5066177;28;20033;-47
2023/10/15 05:29:00;;;;;;;3.05;1.00;;;6.40;99.90;;;;;;5068761;28;20037;-47
2023/10/15 05:31:26;;;;;;;4.22;1.10;;;6.40;99.90;;;;;;5063278;28;20376;-47
2023/10/15 05:33:52;;;;;;;4.78;1.40;;;6.50;99.90;;;;;;5065415;28;20091;-47
2023/10/15 05:36:18;;;;;;;2.25;0.95;;;6.50;99.90;;;;;;5062801;28;20243;-50
2023/10/15 05:38:43;;;;;;;2.33;1.10;;;6.60;99.90;;;;;;5064913;28;20029;-47
2023/10/15 05:41:09;;;;;;;3.15;1.05;;;6.60;99.90;;;;;;5068785;28;20078;-48
2023/10/15 05:43:36;;;;;;;3.00;1.30;;;6.60;99.90;;;;;;5063871;28;20068;-48
2023/10/15 05:46:02;;;;;;;1.88;1.23;;;6.70;99.90;;;;;;5057886;28;20048;-47
2023/10/15 05:48:27;;;;;;;4.60;1.30;;;6.70;99.90;;;;;;5060924;28;20041;-47
2023/10/15 05:50:53;;;;;;;2.67;1.20;;;6.70;99.90;;;;;;5065822;28;20045;-49
2023/10/15 05:53:19;;;;;;;4.85;1.20;;;6.80;99.90;;;;;;5060031;28;20040;-47
2023/10/15 05:55:46;;;;;;;3.88;1.20;;;6.80;99.90;;;;;;5064592;28;20045;-47
2023/10/15 05:58:11;;;;;;;1.65;1.00;;;6.80;99.90;;;;;;5066107;28;20048;-48
2023/10/15 06:00:40;;;;;;;4.47;1.02;;;6.80;99.90;;;;;;5068507;28;20509;-48
2023/10/15 06:03:08;;;;;;;2.58;1.00;;;6.80;99.90;;;;;;5064642;28;20048;-47
2023/10/15 06:05:34;;;;;;;6.20;1.27;;;6.80;99.90;;;;;;5057717;28;20052;-49
2023/10/15 06:08:00;;;;;;;4.28;1.42;;;6.80;99.90;;;;;;5061950;28;20044;-47
2023/10/15 06:10:29;;;;;;;2.63;0.80;;;6.90;99.90;;;;;;5054074;28;20068;-47
2023/10/15 06:12:55;;;;;;;5.07;1.30;;;6.90;99.90;;;;;;5068232;28;20093;-47
2023/10/15 06:15:20;;;;;;;6.53;1.40;;;6.90;99.90;;;;;;5056152;28;20041;-45
2023/10/15 06:17:46;;;;;;;4.03;1.30;;;6.90;99.90;;;;;;5061029;28;20040;-50
2023/10/15 06:20:12;;;;;;;2.42;1.15;;;7.00;99.90;;;;;;5060902;28;20379;-47
2023/10/15 06:22:46;;;;;;;3.83;0.90;;;7.00;99.90;;;;;;5065525;28;20036;-46
2023/10/15 06:25:12;;;;;;;3.15;1.02;;;7.00;99.90;;;;;;5060315;28;20103;-46
2023/10/15 06:27:39;;;;;;;4.47;0.98;;;7.00;99.90;;;;;;5068184;28;20048;-46
2023/10/15 06:30:17;;;;;;;4.32;1.10;;;7.00;99.90;;;;;;5069547;28;20040;-47
2023/10/15 06:32:43;;;;;;;3.50;0.90;;;7.10;99.90;;;;;;5062707;28;20487;-47
2023/10/15 06:35:10;;;;;;;2.85;0.70;;;7.20;99.90;;;;;;5069375;28;20502;-49
2023/10/15 06:37:38;;;;;;;4.60;0.98;;;7.20;99.90;;;;;;5059038;28;20045;-49
2023/10/15 06:40:08;;;;;;;3.78;0.80;;;7.40;99.90;;;;;;5059786;28;20040;-47
2023/10/15 06:42:34;;;;;;;1.65;0.70;;;7.50;99.90;;;;;;5060328;28;20040;-49
2023/10/15 06:44:59;;;;;;;2.22;0.60;;;7.30;99.90;;;;;;5063328;28;20052;-48
2023/10/15 06:47:25;;;;;;;3.63;1.10;;;7.30;99.90;;;;;;5059169;28;20048;-50
2023/10/15 06:49:53;;;;;;;4.63;0.88;;;7.40;99.90;;;;;;5061258;28;20056;-48
2023/10/15 06:52:19;;;;;;;4.13;1.05;;;7.50;99.90;;;;;;5066793;28;20101;-48
2023/10/15 06:54:44;;;;;;;2.20;0.63;;;7.50;99.90;;;;;;5064026;28;20468;-47
2023/10/15 06:57:10;;;;;;;2.63;0.60;;;7.60;99.90;;;;;;5055549;28;20045;-47
2023/10/15 06:59:37;;;;;;;3.25;0.90;;;;;;;;;;5063554;28;20064;-51
2023/10/15 07:02:03;;;;;;;3.03;0.60;;;;;;;;;;5066592;28;20067;-47
2023/10/15 07:04:30;;;;;;;2.20;0.73;;;;;;;;;;5063004;28;20040;-50
2023/10/15 07:06:56;;;;;;;1.75;0.60;;;;;;;;;;5065025;28;20037;-48
2023/10/15 07:09:21;;;;;;;2.75;0.55;;;;;;;;;;5061230;28;20493;-49
2023/10/15 07:11:47;;;;;;;1.20;0.35;;;;;;;;;;5067096;28;20046;-47
2023/10/15 07:14:13;;;;;;;2.15;0.50;;;;;;;;;;5069725;28;20506;-47
2023/10/15 07:16:40;;;;;;;1.20;0.50;;;;;;;;;;5069722;28;20127;-49
2023/10/15 07:19:06;;;;;;;3.67;0.50;;;7.40;99.90;;;;;;5054766;28;20136;-48
2023/10/15 07:21:32;;;;;;;2.20;0.52;;;7.70;99.90;;;;;;5062320;28;20032;-47
2023/10/15 07:23:58;;;;;;;2.08;0.90;;;7.70;99.90;;;;;;5059065;28;20044;-50
2023/10/15 07:26:24;;;;;;;1.23;0.50;;;7.90;99.90;;;;;;5063677;28;20129;-49
2023/10/15 07:28:50;;;;;;;3.00;0.70;;;8.00;99.90;;;;;;5056666;28;20426;-47
2023/10/15 07:31:15;;;;;;;1.80;0.50;;;7.80;99.90;;;;;;5057042;28;20039;-49
2023/10/15 07:33:41;;;;;;;2.15;0.50;;;7.80;99.90;;;;;;5063213;28;20090;-47
2023/10/15 07:36:07;;;;;;;2.00;0.57;;;7.80;99.90;;;;;;5064279;28;20033;-51
2023/10/15 07:38:36;;;;;;;2.50;0.60;;;7.70;99.90;;;;;;5056786;28;20453;-48
2023/10/15 07:41:01;;;;;;;1.42;0.50;;;7.70;99.90;;;;;;5062488;28;20098;-50
2023/10/15 07:43:27;;;;;;;1.90;0.40;;;7.60;99.90;;;;;;5064440;28;20044;-48
2023/10/15 07:45:53;;;;;;;2.75;0.50;;;7.60;99.90;;;;;;5064143;28;20053;-49
2023/10/15 07:48:18;;;;;;;0.95;0.63;;;7.80;99.90;;;;;;5056766;28;20037;-47
2023/10/15 07:50:45;;;;;;;1.63;0.40;;;7.80;99.90;;;;;;5058409;28;20097;-49
2023/10/15 07:53:12;;;;;;;2.13;0.50;;;;;;;;;;5055145;28;20041;-50
2023/10/15 07:55:38;;;;;;;1.45;0.60;;;;;;;;;;5060409;28;20060;-52
2023/10/15 07:58:04;;;;;;;1.30;0.40;;;8.80;99.90;;;;;;5051882;28;22302;-49
2023/10/15 08:00:30;;;;;;;0.93;0.30;;;8.90;99.90;;;;;;5058285;28;20045;-50
2023/10/15 08:02:59;;;;;;;0.70;0.47;;;8.90;99.90;;;;;;5057842;28;20495;-49
2023/10/15 08:05:25;;;;;;;1.02;0.52;;;8.80;99.90;;;;;;5061346;28;20589;-48
2023/10/15 08:07:51;;;;;;;2.15;0.55;;;8.70;99.90;;;;;;5063857;28;20056;-47
2023/10/15 08:10:20;;;;;;;3.40;0.60;;;8.60;99.90;;;;;;5061315;28;20465;-47
2023/10/15 08:12:48;;;;;;;2.53;0.50;;;8.50;99.90;;;;;;5067252;28;20045;-47
2023/10/15 08:15:14;;;;;;;4.93;0.82;;;;;;;;;;5058821;28;20413;-47
2023/10/15 08:17:40;;;;;;;2.30;0.60;;;;;;;;;;5056166;28;20068;-49
2023/10/15 08:20:09;;;;;;;1.50;0.47;;;;;;;;;;5064891;28;20509;-50
2023/10/15 08:22:35;;;;;;;4.05;0.88;;;;;;;;;;5065145;28;20063;-48
2023/10/15 08:25:01;;;;;;;2.50;0.70;;;;;;;;;;5062371;28;20047;-48
2023/10/15 08:27:27;;;;;;;3.60;0.73;;;;;;;;;;5058291;28;20048;-48
2023/10/15 08:29:53;;;;;;;2.63;0.70;;;;;;;;;;5063820;28;20037;-50
2023/10/15 08:32:21;;;;;;;2.13;0.75;;;;;;;;;;5059506;28;20076;-49
2023/10/15 08:34:48;;;;;;;3.25;0.80;;;;;;;;;;5059703;28;20041;-51
2023/10/15 08:37:14;;;;;;;3.67;0.88;;;;;;;;;;5063057;28;20049;-48
2023/10/15 08:39:40;;;;;;;3.40;0.82;;;;;;;;;;5066820;28;20131;-47
2023/10/15 08:42:11;;;;;;;4.57;0.80;;;;;;;;;;5058411;28;20049;-47
2023/10/15 08:44:39;;;;;;;1.85;0.70;;;;;;;;;;5061949;28;20057;-48
2023/10/15 08:47:07;;;;;;;1.98;0.57;;;;;;;;;;5054656;28;20048;-48
2023/10/15 08:49:34;;;;;;;3.63;0.75;;;;;;;;;;5067477;28;20043;-49
2023/10/15 08:52:01;;;;;;;2.38;0.60;;;;;;;;;;5059979;28;20506;-47
2023/10/15 08:54:27;;;;;;;7.97;0.90;;;;;;;;;;5057428;28;20041;-48
2023/10/15 08:56:56;;;;;;;2.38;0.60;;;9.00;99.90;;;;;;5058558;28;20045;-48
2023/10/15 08:59:22;;;;;;;3.70;1.13;;;9.00;99.90;;;;;;5061600;28;20145;-48
2023/10/15 09:01:50;;;;;;;2.55;0.77;;;9.10;99.90;;;;;;5062251;28;20060;-47
2023/10/15 09:04:16;;;;;;;;;;;9.20;99.90;;;;;;5061446;28;20032;-50
2023/10/15 09:06:43;;;;;;;3.03;0.63;;;9.20;99.90;;;;;;5058558;28;20378;-47
2023/10/15 09:09:09;;;;;;;3.72;0.90;;;9.40;99.90;;;;;;5058688;28;20037;-47
2023/10/15 09:11:35;;;;;;;5.40;1.05;;;9.40;99.90;;;;;;5065811;28;20037;-47
2023/10/15 09:14:02;;;;;;;1.67;0.68;;;9.50;99.90;;;;;;5060985;28;20052;-47
2023/10/15 09:16:29;;;;;;;3.05;0.60;;;9.50;99.90;;;;;;5066717;28;20522;-47
2023/10/15 09:18:55;;;;;;;2.53;0.60;;;9.70;99.90;;;;;;5062700;28;20456;-47
2023/10/15 09:21:24;;;;;;;3.92;0.70;;;9.60;99.90;;;;;;5066629;28;20056;-49
2023/10/15 09:23:51;;;;;;;3.70;0.88;;;9.70;99.90;;;;;;5062056;28;20078;-47
2023/10/15 09:26:17;;;;;;;1.40;0.68;;;9.80;99.90;;;;;;5066653;28;20044;-47
2023/10/15 09:28:43;;;;;;;1.73;0.65;;;9.90;99.90;;;;;;5065820;28;20246;-48
2023/10/15 09:31:11;;;;;;;1.20;0.65;;;10.00;99.90;;;;;;5081644;28;20450;-47
2023/10/15 09:33:37;;;;;;;1.95;0.60;;;10.10;99.90;;;;;;5072743;28;20044;-47
2023/10/15 09:36:07;;;;;;;3.08;0.63;;;10.30;99.90;;;;;;5069680;28;20044;-48
2023/10/15 09:38:33;;;;;;;2.95;0.85;;;10.50;99.90;;;;;;5068259;28;20051;-47
2023/10/15 09:41:02;;;;;;;3.75;0.80;;;10.60;99.90;;;;;;5069606;28;20120;-48
2023/10/15 09:43:31;;;;;;;4.03;0.88;;;10.80;99.90;;;;;;5071266;28;20036;-48
2023/10/15 09:46:00;;;;;;;3.30;0.93;;;10.70;99.90;;;;;;5056117;28;20088;-48
2023/10/15 09:48:27;;;;;;;2.80;0.70;;;10.80;99.90;;;;;;5058070;28;20128;-50
2023/10/15 09:50:56;;;;;;;5.72;1.10;;;10.90;99.90;;;;;;5072333;28;20471;-50
2023/10/15 09:53:23;;;;;;;5.18;1.13;;;11.00;99.90;;;;;;5077515;28;20505;-50
2023/10/15 09:55:51;;;;;;;3.13;0.93;;;11.00;99.90;;;;;;5078971;28;20080;-48
2023/10/15 09:58:17;;;;;;;1.40;0.68;;;11.10;99.90;;;;;;5067931;28;20044;-47
2023/10/15 10:01:07;;;;;;;9.27;1.05;;;11.00;99.90;;;;;;5065019;28;20182;-48
2023/10/15 10:03:33;;;;;;;5.55;1.02;;;11.00;99.90;;;;;;5073186;28;20089;-48
2023/10/15 10:06:14;;;;;;;5.53;0.70;;;11.00;99.90;;;;;;5076059;28;20386;-47
2023/10/15 10:09:09;;;;;;;5.35;0.85;;;11.00;99.90;;;;;;5087506;28;20039;-47
2023/10/15 10:11:47;;;;;;;4.43;0.90;;;11.20;99.90;;;;;;5077197;28;20495;-49
2023/10/15 10:14:29;;;;;;;3.15;0.80;;;11.20;99.90;;;;;;5067882;28;20127;-47
2023/10/15 10:16:55;;;;;;;4.00;0.80;;;11.20;99.90;;;;;;5065847;28;20059;-49
2023/10/15 10:19:20;;;;;;;4.53;1.02;;;11.20;99.90;;;;;;5076483;28;20039;-49
2023/10/15 10:21:47;;;;;;;2.65;0.90;;;11.30;99.90;;;;;;5091782;28;20035;-49
2023/10/15 10:24:17;;;;;;;4.53;0.90;;;11.40;99.90;;;;;;5077745;28;20493;-47
2023/10/15 10:26:52;;;;;;;2.47;0.93;;;11.40;99.90;;;;;;5075301;28;20077;-48
2023/10/15 10:29:18;;;;;;;4.10;0.90;;;11.50;99.90;;;;;;5078944;28;20367;-48
2023/10/15 10:31:49;;;;;;;4.45;1.02;;;11.50;99.90;;;;;;5076283;28;20036;-47
2023/10/15 10:34:29;;;;;;;4.63;1.13;;;11.60;99.90;;;;;;5073606;28;20094;-49
2023/10/15 10:36:55;;;;;;;4.07;0.80;;;11.60;99.90;;;;;;5068904;28;20128;-47
2023/10/15 10:39:22;;;;;;;2.47;0.70;;;11.80;99.90;;;;;;5064070;28;20205;-48
2023/10/15 10:41:59;;;;;;;7.47;1.10;;;11.90;99.90;;;;;;5061791;28;20036;-49
2023/10/15 10:44:26;;;;;;;2.63;1.00;;;;;;;;;;5063787;28;20518;-51
2023/10/15 10:46:58;;;;;;;3.72;1.00;;;12.30;99.90;;;;;;5055184;28;20483;-49
2023/10/15 10:49:50;;;;;;;5.20;0.93;;;12.40;99.90;;;;;;5064019;28;20047;-48
2023/10/15 10:52:17;;;;;;;5.00;0.90;;;12.70;99.90;;;;;;5058486;28;20055;-50
2023/10/15 10:54:43;;;;;;;4.60;1.00;;;12.80;99.90;;;;;;5068395;28;20132;-50
2023/10/15 10:57:09;;;;;;;4.25;1.15;;;13.00;99.90;;;;;;5084451;28;20039;-48
2023/10/15 10:59:37;;;;;;;4.05;0.95;;;12.70;99.90;;;;;;5076219;28;20093;-50
2023/10/15 11:02:07;;;;;;;4.28;1.33;;;12.20;99.90;;;;;;5080745;28;20036;-48
2023/10/15 11:04:33;;;;;;;3.22;1.00;;;11.70;99.90;;;;;;5078016;28;21419;-47
2023/10/15 11:06:58;;;;;;;5.40;1.80;;;11.20;99.90;;;;;;5065167;28;20067;-48
2023/10/15 11:09:25;;;;;;;4.20;1.10;;;10.50;99.90;;;;;;5068485;28;20029;-47
2023/10/15 11:11:58;;;;;;;3.65;0.77;;;10.20;99.90;;;;;;5070071;28;20045;-50
2023/10/15 11:14:25;;;;;;;2.92;1.05;;;9.90;99.90;;;;;;5065634;28;20040;-49
2023/10/15 11:16:51;;;;;;;2.38;0.75;;;10.10;99.90;;;;;;5067107;28;20506;-47
2023/10/15 11:19:21;;;;;;;2.17;0.75;;;10.00;99.90;;;;;;5069725;28;20082;-48
2023/10/15 11:21:48;;;;;;;2.20;0.55;;;;;;;;;;5063766;28;20041;-49
2023/10/15 11:24:15;;;;;;;0.83;0.53;;;9.70;99.90;;;;;;5074204;28;20044;-47
2023/10/15 11:26:42;;;;;;;2.97;0.82;;;9.70;99.90;;;;;;5064538;28;20123;-48
2023/10/15 11:29:10;;;;;;;2.33;0.70;;;9.90;99.90;;;;;;5054679;28;20131;-47
2023/10/15 11:31:37;;;;;;;4.97;1.25;;;10.10;99.90;;;;;;5063621;28;20047;-47
2023/10/15 11:34:03;;;;;;;3.80;0.97;;;10.20;99.90;;;;;;5045336;28;20037;-47
2023/10/15 11:36:35;;;;;;;2.10;0.90;;;10.30;99.90;;;;;;5058957;28;20476;-48
2023/10/15 11:39:03;;;;;;;5.07;0.90;;;10.40;99.90;;;;;;5067115;28;20036;-47
2023/10/15 11:41:32;;;;;;;2.63;0.70;;;10.50;99.90;;;;;;5061074;28;20036;-50
2023/10/15 11:44:03;;;;;;;3.88;0.85;;;10.80;99.90;;;;;;5066380;28;20441;-48
2023/10/15 11:46:30;;;;;;;3.28;0.88;;;11.00;99.90;;;;;;5062196;28;20124;-49
2023/10/15 11:49:00;;;;;;;7.00;0.80;;;11.00;99.90;;;;;;5061213;28;20049;-47
2023/10/15 11:51:28;;;;;;;2.38;0.80;;;11.10;99.90;;;;;;5059875;28;20060;-47
2023/10/15 11:54:09;;;;;;;3.85;0.90;;;11.20;99.90;;;;;;5060866;28;20045;-47
2023/10/15 11:56:37;;;;;;;3.05;1.00;;;10.90;99.90;;;;;;5064421;28;20040;-47
2023/10/15 11:59:03;;;;;;;2.95;0.70;;;10.80;99.90;;;;;;5058657;28;20578;-47
2023/10/15 12:01:29;;;;;;;4.55;0.88;;;10.60;99.90;;;;;;5068566;28;20518;-47
2023/10/15 12:03:56;;;;;;;3.72;0.80;;;10.50;99.90;;;;;;5067273;28;20214;-47
2023/10/15 12:06:22;;;;;;;1.80;0.80;;;10.50;99.90;;;;;;5067999;28;20145;-49
2023/10/15 12:08:48;;;;;;;3.00;0.98;;;10.60;99.90;;;;;;5066283;28;20444;-47
2023/10/15 12:11:15;;;;;;;3.60;0.93;;;10.70;99.90;;;;;;5066033;28;20115;-47
2023/10/15 12:13:44;;;;;;;2.65;0.90;;;10.80;99.90;;;;;;5044434;28;20485;-47
2023/10/15 12:16:10;;;;;;;3.67;1.00;;;11.00;99.90;;;;;;5062352;28;20047;-48
2023/10/15 12:18:37;;;;;;;3.28;0.60;;;11.00;99.90;;;;;;5063380;28;20062;-48
2023/10/15 12:21:02;;;;;;;3.83;0.80;;;11.10;99.90;;;;;;5063593;28;20140;-50
2023/10/15 12:23:28;;;;;;;3.35;1.00;;;11.10;99.90;;;;;;5068146;28;20510;-48
2023/10/15 12:25:54;;;;;;;2.47;0.60;;;11.20;99.90;;;;;;5061606;28;20096;-48
2023/10/15 12:28:19;;;;;;;3.45;0.75;;;11.20;99.90;;;;;;5063428;28;20132;-47
2023/10/15 12:30:45;;;;;;;4.32;1.00;;;11.40;99.90;;;;;;5064803;28;20045;-47
2023/10/15 12:33:15;;;;;;;3.58;0.80;;;11.40;99.90;;;;;;5062771;28;20048;-47
2023/10/15 12:35:41;;;;;;;5.00;1.17;;;11.40;99.90;;;;;;5067744;28;20379;-48
2023/10/15 12:38:12;;;;;;;2.47;0.77;;;11.50;99.90;;;;;;5068279;28;20098;-51
2023/10/15 12:40:38;;;;;;;3.80;0.80;;;11.50;99.90;;;;;;5066433;28;20045;-48
2023/10/15 12:43:15;;;;;;;4.88;1.08;;;11.60;99.90;;;;;;5064921;28;20144;-49
2023/10/15 12:45:46;;;;;;;4.32;0.93;;;11.60;99.90;;;;;;5069115;28;20060;-49
2023/10/15 12:48:11;;;;;;;3.40;0.80;;;11.80;99.90;;;;;;5068459;28;20040;-48
2023/10/15 12:50:37;;;;;;;3.28;0.90;;;11.80;99.90;;;;;;5070389;28;20036;-49
2023/10/15 12:53:03;;;;;;;5.75;1.15;;;11.90;99.90;;;;;;5067137;28;20040;-48
2023/10/15 12:55:29;;;;;;;3.47;0.80;;;12.00;99.90;;;;;;5068471;28;20068;-47
2023/10/15 12:57:55;;;;;;;5.30;0.90;;;12.10;99.90;;;;;;5071187;28;20044;-48
2023/10/15 13:00:21;;;;;;;6.05;1.05;;;12.20;99.90;;;;;;5067413;28;20491;-50
2023/10/15 13:02:51;;;;;;;3.75;1.00;;;12.40;99.90;;;;;;5067332;28;20082;-50
2023/10/15 13:05:18;;;;;;;3.97;1.25;;;12.40;99.90;;;;;;5068469;28;20072;-47
2023/10/15 13:07:44;;;;;;;4.82;0.90;;;12.40;99.90;;;;;;5069459;28;20071;-48
2023/10/15 13:10:09;;;;;;;3.63;0.93;;;12.30;99.90;;;;;;5070565;28;20076;-49
2023/10/15 13:12:38;;;;;;;4.50;0.90;;;12.30;99.90;;;;;;5069981;28;20071;-50
2023/10/15 13:15:07;;;;;;;4.25;1.02;;;12.20;99.90;;;;;;5070235;28;20044;-49
2023/10/15 13:17:33;;;;;;;5.57;1.00;;;12.10;99.90;;;;;;5065812;28;20043;-47
2023/10/15 13:20:02;;;;;;;4.53;0.93;;;11.90;99.90;;;;;;5068542;28;20039;-47
2023/10/15 13:22:27;;;;;;;3.28;1.00;;;11.60;99.90;;;;;;5067135;28;20460;-46
2023/10/15 13:24:53;;;;;;;4.32;1.17;;;11.50;99.90;;;;;;5064660;28;20072;-47
2023/10/15 13:27:19;;;;;;;5.97;1.13;;;11.40;99.90;;;;;;5067182;28;20373;-47
2023/10/15 13:29:46;;;;;;;2.50;0.80;;;11.50;99.90;;;;;;5062174;28;20032;-47
2023/10/15 13:32:12;;;;;;;3.90;0.60;;;11.50;99.90;;;;;;5068746;28;20045;-47
2023/10/15 13:34:40;;;;;;;3.05;0.70;;;11.10;99.90;;;;;;5069299;28;20395;-47
2023/10/15 13:37:06;;;;;;;3.35;0.75;;;10.70;99.90;;;;;;5060178;28;20040;-47
2023/10/15 13:39:32;;;;;;;2.35;0.70;;;10.50;99.90;;;;;;5069746;28;20459;-50
2023/10/15 13:41:59;;;;;;;4.18;0.88;;;10.20;99.90;;;;;;5070220;28;20047;-47